09S weather

Sullivan Lake State Airport
Metaline Falls, Washington, United States

Public forecast

Using degrees Fahrenheit for public forecast. Weather courtesy of forecast.io.

METAR (pilot weather report)

Report is more than 2 hours old.

Closest report is Castlegar/West Kootenay Regional Airport, 30.6 nm (56.6 km) NNW. Retrieved 2019/06/16 04:00 UTC (4 hours ago):

CYCG 160400Z VRB02KT 15SM FEW140 FEW250 25/10 A2985 RMK AC1CI1 AC TR CI TR LAST STFD OBS/NEXT 161300Z SLP104 DENSITY ALT 3200FT

TAF (pilot weather forecast)

Forecast is more than 6 hours old.

Closest forecast is Castlegar/West Kootenay Regional Airport, 30.6 nm (56.6 km) NNW. Retrieved 2019/06/16 01:00 UTC (7 hours ago):

TAF CYCG 160038Z 1601/1604 18010KT P6SM FEW100 BKN140 RMK NXT FCST WILL BE ISSUED AT 161445Z